Date,TemperatureHighF,TemperatureAvgF,TemperatureLowF,DewpointHighF,DewpointAvgF,DewpointLowF,HumidityHigh,HumidityAvg,HumidityLow,PressureMaxIn,PressureMinIn,WindSpeedMaxMPH,WindSpeedAvgMPH,GustSpeedMaxMPH,PrecipitationSumIn
2013-1-1,47,44,37,47,42,35,98,93,74,30.06,29.64,15,4,15,0.17
2013-1-2,48,42,36,43,40,35,98,92,78,30.44,30.06,10,3,11,0.00
2013-1-3,51,48,44,51,48,43,98,98,92,30.68,30.41,10,4,12,0.00
2013-1-4,50,48,46,49,48,45,98,98,98,30.71,30.62,9,3,9,0.00
2013-1-5,47,45,44,46,45,44,98,98,98,30.65,30.56,5,2,6,0.00
2013-1-6,48,47,45,48,46,45,98,98,98,30.59,30.47,6,2,9,0.00
2013-1-7,48,46,42,46,44,40,98,93,80,30.50,30.35,6,2,8,0.00
2013-1-8,45,43,41,42,40,38,98,91,85,30.38,30.32,7,3,11,0.00
2013-1-9,42,41,40,41,40,38,98,94,90,30.35,30.17,7,2,10,0.09
2013-1-10,44,40,33,41,38,32,98,94,85,0.00,40.00,4,0,6,0.00
2013-1-11,38,34,28,37,32,26,97,90,79,30.08,30.04,10,0,10,0.02
2013-1-12,36,31,26,31,28,24,94,86,74,30.06,29.96,6,0,8,0.00
2013-1-13,33,30,27,29,26,23,92,83,76,30.03,29.96,8,1,9,0.00
2013-1-14,31,28,26,26,25,23,94,88,75,30.02,29.68,16,2,17,0.00
2013-1-15,33,30,26,30,27,24,94,89,77,29.78,29.57,19,2,23,0.00
2013-1-16,27,22,11,25,19,8,95,89,77,29.97,29.78,5,0,6,0.03
2013-1-17,25,24,22,23,22,21,96,94,90,30.09,29.97,5,1,6,0.00
2013-1-18,32,28,24,28,25,22,96,89,78,30.03,29.52,4,0,6,0.02
2013-1-19,30,28,27,25,24,22,88,84,81,29.52,29.39,11,2,14,0.00
2013-1-20,32,27,23,31,24,20,97,90,82,29.40,29.23,13,2,13,0.00
2013-1-21,34,32,28,31,29,24,93,89,84,29.54,29.37,9,2,9,0.02
2013-1-22,35,29,19,31,27,17,96,93,84,29.73,29.54,3,0,4,0.03
2013-1-23,26,20,14,26,18,13,97,95,88,29.83,29.72,3,0,3,0.00
2013-1-24,27,22,14,25,21,12,97,93,88,30.12,29.81,9,0,10,0.00
2013-1-25,29,27,24,26,24,22,95,89,82,30.14,29.86,13,1,13,0.00
2013-1-26,33,29,23,32,26,20,93,88,79,29.92,29.75,14,3,17,0.01
2013-1-27,41,39,33,38,36,32,94,88,73,29.87,29.55,17,5,20,0.20
2013-1-28,45,40,36,42,37,34,92,88,82,29.95,29.70,21,3,22,0.02
2013-1-29,55,51,46,52,49,42,96,93,87,29.82,29.76,14,4,20,0.43
2013-1-30,57,53,47,54,48,41,95,85,74,30.02,29.67,18,6,20,0.27
2013-1-31,50,46,44,45,41,39,92,83,76,30.09,29.84,18,5,22,0.09
2013-2-1,46,44,39,45,41,37,96,91,83,29.94,29.31,13,2,14,0.32
2013-2-2,42,39,35,38,35,31,95,87,65,30.06,29.44,17,2,20,0.04
2013-2-3,42,39,37,41,36,32,96,90,74,30.15,29.91,13,3,16,0.00
2013-2-4,50,46,42,48,43,38,96,89,76,29.91,29.82,10,2,12,0.06
2013-2-5,44,39,34,39,35,30,95,85,64,29.83,29.40,18,3,21,0.13
2013-2-6,40,35,31,35,33,30,97,91,75,29.78,29.27,13,2,16,0.13
2013-2-7,39,35,33,36,34,32,96,94,88,29.93,29.78,12,1,12,0.20
2013-2-8,38,34,29,34,32,27,97,91,69,30.07,29.88,14,1,19,0.05
2013-2-9,35,31,26,32,29,26,98,92,84,30.14,30.01,5,0,7,0.00
2013-2-10,36,32,30,29,26,23,88,77,63,30.02,29.50,13,3,14,0.01
2013-2-11,35,32,29,32,28,22,95,87,69,29.70,29.43,8,1,10,0.02
2013-2-12,32,30,25,29,24,22,89,80,70,30.11,29.69,9,1,9,0.00
2013-2-13,38,30,26,27,24,20,92,77,51,30.29,30.10,6,0,6,0.00
2013-2-14,34,31,25,33,26,21,94,81,65,30.25,29.89,17,4,20,0.02
2013-2-15,42,38,34,40,36,32,97,95,94,30.20,29.93,5,0,6,0.00
2013-2-16,42,38,36,40,37,35,98,95,93,30.26,30.19,2,0,3,0.00
2013-2-17,45,38,29,41,36,28,99,94,81,30.25,30.17,7,0,9,0.00
2013-2-18,45,33,24,37,29,24,99,87,62,30.17,30.12,5,0,7,0.00
2013-2-19,42,35,27,37,33,26,98,91,79,30.14,30.02,3,0,3,0.00
2013-2-20,39,34,29,38,29,25,96,81,62,30.25,30.08,13,2,15,0.00
2013-2-21,34,29,26,29,26,23,91,85,73,30.25,30.11,13,2,14,0.00
2013-2-22,32,28,26,25,23,20,89,80,65,30.11,29.99,16,2,17,0.00
2013-2-23,30,27,24,28,24,20,94,87,79,30.02,29.96,15,2,16,0.00
2013-2-24,33,31,29,31,30,27,96,94,89,30.09,29.97,11,2,13,0.04
2013-2-25,35,33,32,34,33,31,98,97,95,30.26,30.07,9,1,10,0.17
2013-2-26,43,37,33,38,35,33,98,93,80,30.46,30.26,10,1,11,0.01
2013-2-27,37,34,33,36,33,32,97,96,94,30.47,30.42,8,1,10,0.00
2013-2-28,38,35,32,35,33,32,98,92,83,30.42,30.30,9,1,9,0.00
2013-3-1,40,36,34,38,33,31,95,88,78,30.32,30.27,8,1,10,0.00
2013-3-2,38,36,35,33,31,30,85,80,74,30.31,30.24,8,0,9,0.00
2013-3-3,43,38,32,38,33,29,90,81,75,30.26,30.15,6,0,9,0.00
2013-3-4,58,40,27,43,33,26,98,79,40,30.15,29.85,12,1,12,0.00
2013-3-5,66,49,34,43,36,30,86,63,33,29.86,29.68,10,2,10,0.00
2013-3-6,62,52,45,41,38,34,81,62,40,29.68,29.51,8,1,8,0.00
2013-3-7,58,50,44,51,45,38,96,82,71,29.51,29.43,5,0,6,0.05
2013-3-8,61,53,44,52,49,43,99,88,70,29.46,29.42,9,0,9,0.02
2013-3-9,53,49,44,49,46,42,95,91,81,29.56,29.44,13,3,13,0.11
2013-3-10,44,36,32,42,34,28,97,92,87,29.66,29.52,12,2,13,0.05
2013-3-11,32,29,28,29,26,24,94,87,78,29.68,29.63,14,3,16,0.00
2013-3-12,29,26,21,26,24,17,95,90,78,29.70,29.56,17,4,23,0.00
2013-3-13,34,21,5,27,16,2,95,83,62,29.84,29.69,3,0,5,0.03
2013-3-14,38,29,22,30,26,19,97,87,62,29.99,29.83,10,1,10,0.02
2013-3-15,39,32,21,32,27,19,95,82,67,29.99,29.88,11,2,13,0.00
2013-3-16,45,40,36,34,28,25,73,63,49,29.87,29.56,15,5,15,0.00
2013-3-17,50,43,38,41,38,34,90,82,64,29.56,29.28,14,4,15,0.00
2013-3-18,53,43,35,39,35,31,89,73,45,29.34,29.27,10,2,12,0.00
2013-3-19,48,41,38,42,38,35,95,87,70,29.53,29.32,9,1,11,0.11
2013-3-20,40,38,35,39,36,33,96,94,90,29.94,29.48,10,1,10,0.31
2013-3-21,42,36,30,33,29,26,96,78,56,30.10,29.94,7,0,8,0.00
2013-3-22,45,37,30,36,30,26,86,77,67,30.07,29.82,12,2,17,0.00
2013-3-23,37,34,32,33,29,26,92,80,73,29.87,29.82,13,3,20,0.02
2013-3-24,36,32,28,28,24,19,92,75,52,29.90,29.84,15,3,16,0.01
2013-3-25,40,34,30,25,21,18,70,60,52,29.91,29.83,14,3,17,0.00
2013-3-26,42,34,28,24,21,19,72,59,40,29.88,29.82,12,2,14,0.00
2013-3-27,43,35,27,25,23,21,79,61,43,29.86,29.77,16,1,16,0.00
2013-3-28,43,36,28,33,28,24,95,74,46,29.80,29.74,7,1,8,0.01
2013-3-29,36,32,29,32,28,25,95,84,69,29.82,29.75,4,0,7,0.02
2013-3-30,40,33,26,30,27,23,94,79,59,29.86,29.73,10,1,12,0.00
2013-3-31,38,34,29,30,28,25,92,81,61,29.92,29.86,9,1,13,0.00
2013-4-1,47,36,27,30,26,22,95,70,44,29.89,29.76,16,2,17,0.00
2013-4-2,48,37,28,27,24,22,79,60,39,29.91,29.80,13,2,17,0.00
2013-4-3,44,37,29,30,27,23,82,69,57,29.94,29.89,14,2,17,0.00
2013-4-4,48,39,33,31,28,25,73,64,48,29.89,29.77,15,2,16,0.00
2013-4-5,39,37,32,32,30,28,86,77,72,29.97,29.75,10,2,15,0.00
2013-4-6,43,38,30,35,33,27,89,82,67,30.22,29.96,8,1,11,0.00
2013-4-7,53,38,23,34,26,22,97,66,33,30.23,29.92,10,1,12,0.00
2013-4-8,50,42,31,35,30,26,83,63,47,29.92,29.59,10,1,11,0.00
2013-4-9,54,43,36,47,40,32,95,87,71,29.60,29.44,9,2,11,0.16
2013-4-10,49,46,44,45,44,42,96,91,83,29.74,29.51,9,1,9,0.04
2013-4-11,58,52,46,50,48,44,96,85,69,29.64,29.43,15,3,18,0.10
2013-4-12,58,51,48,50,46,41,94,85,68,29.73,29.51,16,3,19,0.18
2013-4-13,60,52,44,49,44,40,90,77,50,30.11,29.72,11,3,15,0.01
2013-4-14,75,62,52,56,51,49,88,70,43,30.16,30.02,13,3,16,0.00
2013-4-15,64,58,50,54,51,46,94,78,67,30.16,30.01,7,1,8,0.01
2013-4-16,66,57,47,53,48,39,97,74,41,30.15,30.05,11,2,15,0.01
2013-4-17,75,63,55,54,52,46,93,68,39,30.17,29.88,13,2,13,0.01
2013-4-18,66,58,50,51,42,35,80,57,37,30.10,29.83,16,4,19,0.00
2013-4-19,52,48,43,46,42,39,90,79,65,30.39,30.10,10,2,11,0.06
2013-4-20,54,46,38,42,36,32,92,70,47,30.46,30.30,16,3,19,0.00
2013-4-21,56,47,36,43,37,32,88,69,46,30.30,30.03,7,0,8,0.00
2013-4-22,61,48,33,41,35,28,92,66,30,30.08,30.01,8,1,10,0.00
2013-4-23,61,53,48,50,45,40,88,76,60,30.25,30.05,11,2,11,0.00
2013-4-24,72,58,42,53,48,39,95,73,46,30.29,30.22,9,1,13,0.00
2013-4-25,78,64,48,55,51,46,97,68,39,30.26,30.03,8,1,8,0.00
2013-4-26,61,52,43,54,48,41,95,88,74,30.03,29.78,12,2,15,0.17
2013-4-27,52,46,40,42,38,32,95,76,48,29.96,29.82,14,3,16,0.00
2013-4-28,53,46,39,41,36,29,86,70,43,30.06,29.96,7,1,10,0.00
2013-4-29,58,49,39,42,38,32,88,68,47,30.15,29.96,11,2,13,0.00
2013-4-30,61,49,34,41,37,32,96,67,40,30.20,30.14,12,1,12,0.00
2013-5-1,66,56,44,50,44,39,84,66,51,30.21,30.05,8,2,16,0.02
2013-5-2,68,58,51,55,51,47,94,77,55,30.09,30.02,9,1,13,0.02
2013-5-3,68,58,49,52,48,45,90,72,49,30.04,29.99,9,1,11,0.00
2013-5-4,65,53,43,49,44,40,92,73,52,30.18,30.02,10,1,12,0.00
2013-5-5,68,56,43,48,44,40,95,67,38,30.22,30.15,8,1,9,0.00
2013-5-6,76,58,41,53,46,39,97,69,37,30.18,30.01,9,1,11,0.00
2013-5-7,72,59,50,57,52,46,96,80,51,30.03,29.89,14,0,22,0.21
2013-5-8,68,60,54,60,56,52,98,88,67,29.89,29.78,11,2,11,0.19
2013-5-9,64,56,51,55,49,44,97,78,56,29.96,29.85,8,1,12,0.31
2013-5-10,59,53,48,51,47,43,89,79,73,30.04,29.86,11,2,13,0.00
2013-5-11,60,52,47,51,47,44,93,85,63,30.04,29.89,12,2,17,0.14
2013-5-12,56,50,45,47,43,41,92,79,61,30.05,29.87,13,2,13,0.02
2013-5-13,60,53,47,52,48,43,96,82,61,30.04,29.88,12,3,15,0.02
2013-5-14,55,51,47,49,45,42,89,78,65,29.88,29.56,10,1,12,0.00
2013-5-15,63,55,49,51,46,41,89,74,46,29.60,29.44,9,1,13,0.01
2013-5-16,50,49,47,49,47,45,97,93,83,29.60,29.45,7,1,9,0.51
2013-5-17,51,48,47,50,47,45,98,95,92,29.73,29.50,5,0,6,0.22
2013-5-18,59,52,47,50,47,45,96,84,69,29.79,29.72,8,1,8,0.00
2013-5-19,67,55,42,55,50,41,98,82,55,29.78,29.73,9,1,10,0.00
2013-5-20,54,51,48,50,49,46,97,91,85,29.81,29.74,4,0,8,0.03
2013-5-21,54,50,46,52,49,45,99,96,91,29.89,29.78,9,0,10,0.23
2013-5-22,55,49,46,47,45,42,97,85,69,30.00,29.89,11,2,15,0.02
2013-5-23,49,44,36,47,42,35,97,92,80,29.95,29.75,9,1,13,0.67
2013-5-24,55,44,35,44,39,34,98,83,52,29.92,29.81,9,1,11,0.14
2013-5-25,59,47,35,47,41,34,99,82,51,30.03,29.92,12,1,13,0.00
2013-5-26,55,49,44,47,44,41,97,84,59,30.02,29.92,11,1,16,0.11
2013-5-27,67,56,44,50,44,38,89,68,36,29.92,29.75,8,1,11,0.00
2013-5-28,73,56,43,56,48,42,95,76,43,29.75,29.49,7,1,14,0.17
2013-5-29,52,50,48,50,48,45,97,91,80,29.65,29.57,10,1,10,0.27
2013-5-30,57,52,48,51,49,47,98,91,76,29.84,29.64,6,1,8,0.04
2013-5-31,70,57,46,62,53,45,99,87,59,29.96,29.82,13,2,17,0.00
2013-6-1,65,54,49,54,50,46,96,86,63,30.20,29.95,11,2,14,0.00
2013-6-2,65,55,43,49,45,42,97,73,49,30.35,30.20,12,2,15,0.00
2013-6-3,61,52,43,48,45,42,97,78,55,30.40,30.30,11,2,14,0.00
2013-6-4,68,54,43,53,47,41,95,78,53,30.32,30.11,10,1,12,0.00
2013-6-5,76,61,43,55,50,42,98,71,40,30.11,30.00,9,1,11,0.00
2013-6-6,81,66,49,61,54,47,97,69,37,30.08,30.03,9,1,11,0.00
2013-6-7,80,67,51,58,52,45,96,64,30,30.12,30.04,10,1,13,0.00
2013-6-8,77,65,54,61,55,52,93,72,47,30.09,29.90,11,2,13,0.00
2013-6-9,66,59,51,56,51,48,86,76,62,29.92,29.81,11,2,13,0.00
2013-6-10,66,56,49,51,48,46,90,75,54,29.99,29.86,11,1,11,0.00
2013-6-11,71,59,45,58,52,43,97,77,56,30.03,29.98,6,0,7,0.00
2013-6-12,75,66,58,62,59,55,91,80,62,30.03,29.97,10,2,12,0.00
2013-6-13,70,63,55,63,58,49,93,85,65,30.05,29.89,11,2,14,0.24
2013-6-14,67,58,50,53,49,47,92,75,51,30.14,29.98,9,1,11,0.00
2013-6-15,68,59,49,56,49,43,92,71,43,29.98,29.83,15,2,16,0.02
2013-6-16,70,61,52,55,50,47,84,69,52,29.99,29.93,7,1,10,0.00
2013-6-17,75,65,52,65,57,49,92,78,61,29.98,29.82,11,1,11,0.09
2013-6-18,90,75,61,73,66,60,99,77,43,29.98,29.88,7,0,8,0.01
2013-6-19,83,72,64,70,67,63,98,84,58,29.94,29.77,14,1,14,0.28
2013-6-20,79,70,64,68,66,60,97,86,64,29.95,29.78,11,0,12,0.02
2013-6-21,68,63,60,62,59,55,94,86,71,29.98,29.75,11,2,14,0.02
2013-6-22,68,62,55,61,57,53,94,83,62,29.98,29.82,16,3,18,0.03
2013-6-23,65,58,55,57,53,51,96,84,70,29.97,29.81,13,2,19,0.02
2013-6-24,59,57,54,53,51,49,93,82,71,30.26,29.97,8,1,9,0.02
2013-6-25,65,57,52,53,51,48,97,81,59,30.38,30.26,6,1,8,0.01
2013-6-26,66,55,42,52,48,41,99,78,55,30.40,30.29,10,0,11,0.01
2013-6-27,62,56,52,53,50,47,97,83,62,30.29,30.18,9,1,10,0.02
2013-6-28,63,57,52,56,53,49,96,89,78,30.18,30.04,10,1,10,0.01
2013-6-29,66,60,52,59,56,50,98,87,64,30.27,29.97,8,1,10,0.02
2013-6-30,73,60,46,62,54,45,99,82,63,30.27,30.10,8,1,10,0.01
2013-7-1,69,61,55,59,56,52,98,85,66,30.10,29.99,8,1,12,0.01
2013-7-2,76,62,49,61,54,47,97,76,41,30.01,29.75,7,0,12,0.01
2013-7-3,67,63,59,62,60,56,96,88,74,29.99,29.70,6,1,8,0.02
2013-7-4,69,63,58,61,58,56,95,85,69,30.26,29.99,11,1,11,0.01
2013-7-5,71,64,58,63,60,56,97,86,73,30.40,30.26,8,0,8,0.01
2013-7-6,81,66,53,66,59,52,99,80,49,30.40,30.32,9,1,10,0.01
2013-7-7,82,70,55,65,58,51,99,70,38,30.40,30.35,10,1,11,0.00
2013-7-8,82,69,55,65,59,54,98,73,45,30.42,30.31,10,1,13,0.01
2013-7-9,81,70,58,64,59,53,91,71,49,30.33,30.15,11,2,12,0.00
2013-7-10,75,65,56,61,56,51,94,76,57,30.18,30.10,14,2,14,0.01
2013-7-11,69,60,56,54,51,48,84,71,56,30.19,30.14,10,2,12,0.00
2013-7-12,70,59,47,56,52,45,98,80,57,30.22,30.17,7,1,10,0.00
2013-7-13,73,62,50,57,54,48,98,77,52,30.22,30.18,8,1,9,0.00
2013-7-14,78,64,50,63,57,48,99,79,55,30.25,30.17,7,1,8,0.00
2013-7-15,81,68,56,64,58,52,97,73,37,30.19,30.16,5,0,7,0.00
2013-7-16,81,69,52,61,56,50,97,68,39,30.21,30.15,7,1,8,0.00
2013-7-17,82,70,56,64,59,54,95,72,45,30.21,30.17,9,1,12,0.00
2013-7-18,85,74,60,66,61,57,94,68,43,30.22,30.15,12,1,12,0.00
2013-7-19,83,72,60,61,60,57,92,67,45,30.21,30.13,12,2,13,0.00
2013-7-20,75,67,58,62,59,54,91,76,62,30.17,30.09,10,2,13,0.00
2013-7-21,90,73,54,68,61,53,97,71,42,30.11,30.00,6,0,8,0.00
2013-7-22,93,78,62,68,64,59,94,67,34,30.03,29.93,6,0,7,0.00
2013-7-23,91,77,63,68,64,56,93,68,31,29.95,29.85,7,0,8,0.00
2013-7-24,80,71,64,68,65,61,95,81,57,29.99,29.88,6,0,11,0.05
2013-7-25,86,73,59,70,63,58,99,75,46,29.98,29.91,8,1,11,0.00
2013-7-26,85,73,65,68,65,62,93,78,51,29.95,29.84,8,1,11,0.00
2013-7-27,84,72,64,72,67,62,98,85,62,29.85,29.60,18,1,23,0.28
2013-7-28,77,69,64,66,62,58,97,80,56,29.90,29.65,8,1,23,0.02
2013-7-29,77,69,59,63,61,56,94,77,50,30.04,29.89,9,1,11,0.01
2013-7-30,72,64,58,64,60,56,95,85,60,30.07,29.95,14,2,16,0.01
2013-7-31,77,69,64,65,62,58,91,78,61,30.09,29.97,9,2,12,0.01
2013-8-1,91,75,62,68,63,59,93,70,36,30.03,29.85,8,1,11,0.01
2013-8-2,95,82,69,68,65,62,85,60,36,29.85,29.74,13,2,14,0.00
2013-8-3,78,71,59,67,59,52,91,68,43,30.14,29.85,12,1,12,0.01
2013-8-4,83,68,53,60,55,51,97,68,36,30.15,30.07,7,0,10,0.00
2013-8-5,87,72,56,66,59,54,97,69,40,30.09,29.82,10,1,15,0.00
2013-8-6,76,68,59,65,58,56,89,73,57,30.00,29.87,8,1,12,0.00
2013-8-7,64,61,59,63,59,57,97,93,82,29.94,29.77,8,1,10,0.13
2013-8-8,73,64,58,59,57,54,97,81,55,30.14,29.93,9,1,9,0.04
2013-8-9,73,63,51,62,57,50,99,81,50,30.14,30.06,8,0,10,0.01
2013-8-10,71,62,54,59,53,48,95,73,52,30.16,30.09,9,1,12,0.00
2013-8-11,73,61,49,57,52,47,93,74,54,30.16,30.01,12,1,12,0.01
2013-8-12,71,64,57,58,55,50,94,74,51,30.03,29.94,9,1,9,0.00
2013-8-13,70,61,50,54,51,46,94,72,45,30.19,30.00,10,1,12,0.00
2013-8-14,71,59,47,58,51,45,95,77,52,30.22,30.18,6,0,8,0.00
2013-8-15,74,63,52,63,56,50,92,80,61,30.20,30.09,7,0,9,0.00
2013-8-16,85,70,57,61,56,52,89,64,34,30.09,29.94,11,1,12,0.00
2013-8-17,78,69,60,62,59,57,92,73,50,30.01,29.87,10,1,13,0.02
2013-8-18,73,67,63,66,62,58,96,83,68,29.91,29.83,10,1,12,0.14
2013-8-19,73,64,52,62,56,50,96,77,50,30.27,29.89,10,1,13,0.04
2013-8-20,75,61,50,57,53,49,97,76,45,30.37,30.27,5,0,6,0.01
2013-8-21,78,64,50,56,52,48,92,69,41,30.33,30.16,8,0,8,0.00
2013-8-22,77,63,50,61,55,49,97,77,47,30.17,30.05,7,0,8,0.00
2013-8-23,82,67,56,63,57,53,98,75,37,30.07,29.90,7,0,9,0.00
2013-8-24,69,64,60,62,59,54,94,83,71,29.90,29.79,7,0,7,0.00
2013-8-25,70,62,56,61,57,54,96,84,63,29.95,29.79,8,0,10,0.00
2013-8-26,71,63,54,59,56,53,99,80,56,29.99,29.93,10,1,12,0.00
2013-8-27,76,64,54,58,53,47,97,71,39,30.01,29.93,12,1,13,0.01
2013-8-28,74,61,48,55,51,46,97,74,44,30.16,30.01,9,1,9,0.00
2013-8-29,77,62,49,61,54,48,98,77,44,30.18,30.13,6,0,7,0.00
2013-8-30,74,63,52,58,54,50,97,76,51,30.16,30.08,8,1,9,0.00
2013-8-31,73,64,56,63,57,50,92,79,57,30.30,30.09,10,1,13,0.00
2013-9-1,67,57,43,53,48,42,97,75,50,30.36,30.30,7,1,9,0.00
2013-9-2,73,62,52,59,54,49,95,77,59,30.33,30.25,10,1,11,0.00
2013-9-3,79,65,52,64,58,51,97,79,56,30.34,30.26,6,0,10,0.00
2013-9-4,84,69,54,65,60,53,99,76,49,30.27,30.02,8,0,11,0.00
2013-9-5,91,74,59,64,59,54,94,64,30,30.03,29.78,7,1,9,0.00
2013-9-6,80,69,60,68,61,56,94,77,52,29.88,29.72,8,0,13,0.05
2013-9-7,66,61,56,61,58,53,98,88,64,30.07,29.88,6,0,8,0.02
2013-9-8,70,60,54,56,53,47,98,80,47,30.10,30.02,4,0,5,0.01
2013-9-9,65,56,49,54,51,47,95,83,56,30.12,29.83,17,1,17,0.01
2013-9-10,62,54,49,55,51,48,96,88,72,29.99,29.87,13,2,14,0.00
2013-9-11,64,58,53,59,54,51,97,90,76,29.99,29.82,13,2,14,0.00
2013-9-12,62,58,54,57,54,53,97,90,73,30.10,29.99,8,0,8,0.00
2013-9-13,63,58,52,58,55,51,97,91,80,30.12,30.02,9,1,10,0.01
2013-9-14,64,60,55,61,58,53,97,93,81,30.02,29.85,9,2,13,0.00
2013-9-15,62,54,44,54,50,44,100,86,63,29.96,29.66,11,1,11,0.01
2013-9-16,62,55,46,54,48,39,96,78,47,29.67,29.55,12,2,15,0.00
2013-9-17,59,51,44,54,47,42,97,88,66,29.67,29.33,12,2,14,0.00
2013-9-18,58,54,51,56,53,49,98,94,88,29.77,29.33,7,1,11,0.01
2013-9-19,59,54,47,52,49,45,94,84,67,29.94,29.77,12,1,12,0.00
2013-9-20,62,57,48,56,53,47,96,87,74,30.20,29.84,7,1,10,0.01
2013-9-21,61,53,45,54,50,44,99,89,71,30.33,30.19,7,0,8,0.00
2013-9-22,68,60,53,61,57,51,98,90,74,30.37,30.32,4,0,4,0.00
2013-9-23,69,61,52,61,57,51,99,89,67,30.35,30.14,4,0,7,0.01
2013-9-24,71,58,47,59,53,46,99,86,63,30.14,29.92,7,0,8,0.00
2013-9-25,69,56,47,61,53,46,100,90,69,29.92,29.81,4,0,6,0.00
2013-9-26,64,58,51,59,56,49,99,92,72,30.04,29.84,1,0,2,0.00
2013-9-27,64,53,46,54,49,44,99,89,64,30.04,29.94,8,0,9,0.01
2013-9-28,65,55,45,55,50,44,99,85,67,29.94,29.78,12,1,12,0.00
2013-9-29,66,56,50,54,49,46,86,77,58,29.78,29.70,9,1,11,0.00
2013-9-30,64,54,43,51,46,40,94,78,59,29.82,29.73,9,1,10,0.00
2013-10-1,66,52,38,51,45,37,99,82,55,29.93,29.82,9,1,11,0.00
2013-10-2,69,55,42,52,46,39,94,74,49,30.01,29.92,6,0,8,0.00
2013-10-3,72,57,43,58,49,42,96,77,54,30.01,29.89,11,1,11,0.00
2013-10-4,72,63,57,64,59,53,95,86,71,29.97,29.88,11,2,13,0.01
2013-10-5,66,60,51,60,57,50,99,92,81,30.21,29.96,6,0,7,0.00
2013-10-6,67,56,49,59,53,47,99,90,65,30.30,30.20,4,0,5,0.00
2013-10-7,66,54,44,56,50,44,100,89,61,30.32,30.25,3,0,5,0.00
2013-10-8,66,57,49,56,53,48,99,88,68,30.29,30.23,1,0,1,0.00
2013-10-9,60,58,52,58,55,51,98,90,79,30.24,29.83,9,0,9,0.01
2013-10-10,56,48,44,51,45,42,97,90,66,29.85,29.78,10,1,10,0.00
2013-10-11,49,46,42,46,45,41,98,95,90,29.99,29.80,6,0,8,0.00
2013-10-12,48,43,35,45,42,34,99,95,87,30.10,29.99,7,0,9,0.00
2013-10-13,50,48,45,46,45,43,96,89,78,29.99,29.86,17,4,21,0.01
2013-10-14,58,52,48,51,48,45,96,87,74,29.93,29.79,13,3,15,0.00
2013-10-15,56,51,47,50,48,46,97,88,74,29.82,29.74,10,2,12,0.00
2013-10-16,56,52,46,52,49,44,99,92,83,29.97,29.82,10,1,11,0.01
2013-10-17,59,56,54,56,54,52,98,93,87,30.03,29.86,11,2,15,0.00
2013-10-18,63,56,49,56,53,48,98,91,76,30.07,29.94,0,0,0,0.00
2013-10-19,65,56,42,60,53,42,100,90,83,29.94,29.75,0,0,0,0.00
2013-10-20,65,60,57,58,57,53,95,88,78,29.90,29.82,0,0,8,0.01
2013-10-21,67,60,55,59,56,53,94,87,74,29.93,29.83,3,0,7,0.00
2013-10-22,74,63,57,62,59,55,96,86,63,29.83,29.55,10,0,12,0.00
2013-10-23,66,62,57,59,57,54,93,84,71,29.86,29.54,12,0,19,0.22
2013-10-24,64,56,50,56,53,49,98,90,70,30.06,29.86,0,0,0,0.01
2013-10-25,68,60,51,61,57,50,97,89,78,29.96,29.79,7,0,13,0.06
2013-10-26,69,63,60,61,59,58,96,89,75,29.88,29.76,10,0,11,0.00
2013-10-27,61,59,55,58,53,50,93,81,67,29.76,29.57,17,1,21,0.06
2013-10-28,62,57,51,56,52,46,94,81,68,29.72,29.31,21,3,24,0.20
2013-10-29,55,50,45,49,46,43,93,85,75,30.04,29.72,11,0,15,0.09
2013-10-30,55,47,42,47,43,40,94,87,68,30.27,30.04,5,0,6,0.01
2013-10-31,56,49,41,48,44,40,95,84,69,30.27,30.09,10,0,12,0.00
2013-11-1,53,50,48,50,48,46,94,90,83,30.09,29.68,7,0,9,0.06
2013-11-2,59,54,48,57,51,47,98,93,83,29.68,29.51,11,0,12,0.19
2013-11-3,50,47,45,48,44,41,93,87,82,29.68,29.48,13,-7,16,0.10
2013-11-4,58,49,43,53,47,40,96,91,81,29.48,29.05,15,1,23,0.37
2013-11-5,50,44,39,48,41,37,97,91,85,29.52,29.26,16,0,16,0.28
2013-11-6,58,52,46,56,50,44,99,92,86,29.65,29.46,10,0,13,0.28
2013-11-7,58,54,50,56,53,50,99,95,86,29.78,29.64,10,0,14,0.68
2013-11-8,54,50,48,52,49,46,99,96,88,29.83,29.59,8,0,9,0.22
2013-11-9,51,48,44,47,44,42,93,87,76,29.87,29.61,11,0,16,0.08
2013-11-10,47,42,34,44,40,34,97,92,80,30.25,29.61,4,0,9,0.06
2013-11-11,50,41,33,44,38,33,99,89,72,30.41,30.25,6,0,6,0.00
2013-11-12,48,46,43,47,42,38,99,88,79,30.38,30.23,7,0,9,0.05
2013-11-13,51,42,33,47,40,33,100,93,75,30.52,30.34,0,0,0,0.01
2013-11-14,45,41,34,45,40,32,98,96,92,30.35,30.06,7,0,7,0.43
2013-11-15,48,43,34,44,41,33,98,94,85,30.47,30.17,2,0,6,0.01
2013-11-16,37,36,33,37,36,33,99,99,98,30.49,30.36,0,0,0,0.01
2013-11-17,44,39,34,42,39,34,99,97,92,30.37,30.04,0,0,0,0.00
2013-11-18,42,40,34,41,38,33,98,95,87,30.04,29.76,0,0,0,0.00
2013-11-19,47,42,35,45,40,34,98,94,90,29.85,29.69,0,0,0,0.02
2013-11-20,43,37,31,39,34,30,99,90,71,29.86,29.37,14,1,17,0.14
2013-11-21,41,37,34,38,36,33,98,94,89,29.74,29.36,5,0,7,0.04
2013-11-22,41,39,36,38,36,33,92,90,87,29.98,29.74,10,0,10,0.01
2013-11-23,42,40,34,40,38,33,96,92,87,30.17,29.98,3,0,6,0.00
2013-11-24,46,38,30,44,37,29,100,94,84,30.38,30.16,0,0,5,0.03
2013-11-25,45,40,33,40,38,31,95,89,78,30.54,30.38,0,0,0,0.00
2013-11-26,43,38,30,42,37,29,99,97,94,30.59,30.53,0,0,0,0.05
2013-11-27,45,41,36,43,40,35,99,96,89,30.54,30.49,0,0,0,0.00
2013-11-28,46,44,41,46,43,40,99,98,92,30.53,30.46,0,0,0,0.06
2013-11-29,47,44,41,45,43,38,100,95,84,30.48,30.01,8,0,11,0.02
2013-11-30,47,42,36,44,40,34,99,94,88,30.37,30.00,0,0,5,0.09
2013-12-1,49,42,36,45,41,35,100,96,85,30.48,30.36,0,0,0,0.00
2013-12-2,47,42,30,44,39,29,98,91,78,30.53,30.43,8,0,8,0.00
2013-12-3,42,33,28,38,32,27,100,94,81,30.44,30.32,0,0,0,0.01
2013-12-4,45,40,32,44,38,31,98,95,88,30.43,30.28,0,-7,0,0.98
2013-12-5,46,39,32,43,35,30,99,88,64,30.43,29.92,16,1,28,0.02
2013-12-6,41,38,35,35,31,29,85,76,64,30.35,30.07,10,0,14,0.00
2013-12-7,47,42,35,44,40,31,98,92,82,30.35,30.27,0,0,2,0.02
2013-12-8,49,45,43,46,43,40,97,93,89,30.36,30.27,0,0,3,0.01
2013-12-9,49,43,36,44,40,34,96,88,82,30.51,30.34,0,0,0,0.00
2013-12-10,50,37,31,45,35,30,99,93,79,30.54,30.50,0,0,0,0.00
2013-12-11,50,35,28,44,33,28,100,94,81,30.53,30.43,0,0,0,0.01
2013-12-12,40,33,27,37,31,26,99,95,86,30.43,30.31,0,0,0,0.01
2013-12-13,43,36,29,39,34,27,97,92,83,30.31,30.17,0,0,2,0.01
2013-12-14,45,42,37,43,40,36,97,93,87,30.40,30.17,12,0,18,0.14
2013-12-15,48,46,43,44,41,38,90,83,74,30.37,30.27,16,1,22,0.01
2013-12-19,48,43,38,45,41,36,97,92,85,29.91,29.66,6,-31,9,0.27
2013-12-20,46,42,39,42,39,37,97,91,82,30.38,29.91,8,-7,10,0.00
2013-12-21,44,43,40,39,38,34,92,83,72,30.37,30.04,15,2,16,0.05
2013-12-22,50,46,41,47,44,39,95,91,86,30.04,29.89,14,1,18,0.28
2013-12-23,53,48,42,46,43,40,93,84,71,30.05,29.48,22,2,22,0.00
2013-12-24,54,50,46,50,46,42,97,84,67,29.49,29.10,28,5,34,0.54
2013-12-25,49,46,40,48,42,38,97,89,83,29.29,29.03,4,0,9,0.14
2013-12-26,46,42,38,42,40,37,95,92,87,29.64,29.26,0,0,6,0.00
2013-12-27,53,46,39,51,44,37,96,90,82,29.62,29.36,21,3,22,0.06
2013-12-28,53,46,42,51,44,40,97,94,88,29.73,29.36,12,0,12,0.45
2013-12-29,45,42,38,41,39,36,95,91,84,30.24,29.73,3,0,6,0.13
2013-12-30,44,42,37,40,38,36,95,87,78,30.25,30.05,15,1,17,0.01
2013-12-31,49,44,41,40,38,35,90,79,63,30.08,29.75,10,1,12,0.03
2014-1-1,50,46,41,46,42,39,94,87,80,29.82,29.44,19,2,22,0.06
2014-1-2,51,48,44,47,45,42,93,87,81,29.68,29.36,16,2,18,0.03